Time;durP1;ratioP1;P1;durP2;ratioP2;P2;SDS_P1;SDS_P2;PMS_P1;PMS_P2;Temp;Humidity;BMP_temperature;BMP_pressure;BME280_temperature;BME280_humidity;BME280_pressure;Samples;Min_cycle;Max_cycle;Signal;HPM_P1;HPM_P2
2022/05/18 00:00:20;;;;;;;10.15;5.97;;;;;;;22.13;52.36;101738.22;5134863;27;20043;-61
2022/05/18 00:02:46;;;;;;;6.95;6.20;;;;;;;22.12;52.38;101741.97;5134417;27;20057;-61
2022/05/18 00:05:13;;;;;;;7.80;6.28;;;;;;;22.11;52.36;101743.00;5134374;27;20039;-60
2022/05/18 00:07:40;;;;;;;10.38;6.20;;;;;;;22.08;52.18;101743.31;5134040;27;20393;-60
2022/05/18 00:10:07;;;;;;;11.10;6.18;;;;;;;22.05;52.20;101754.59;5134322;27;20053;-61
2022/05/18 00:12:33;;;;;;;10.60;6.00;;;;;;;22.05;52.44;101756.47;5134535;27;20031;-61
2022/05/18 00:15:00;;;;;;;7.70;6.82;;;;;;;22.03;52.58;101756.63;5133873;27;20515;-61
2022/05/18 00:17:27;;;;;;;10.75;6.50;;;;;;;22.03;52.59;101753.03;5134372;27;20039;-60
2022/05/18 00:19:53;;;;;;;12.68;7.63;;;;;;;22.01;52.74;101755.03;5134560;27;20031;-60
2022/05/18 00:22:20;;;;;;;10.80;7.03;;;;;;;21.97;52.44;101753.66;5134275;27;20043;-61
2022/05/18 00:24:46;;;;;;;8.77;6.65;;;;;;;21.94;52.67;101765.75;5134044;27;20512;-62
2022/05/18 00:27:13;;;;;;;10.35;7.60;;;;;;;21.91;52.75;101760.63;5134481;27;20039;-60
2022/05/18 00:29:39;;;;;;;11.40;7.28;;;;;;;21.89;52.79;101758.03;5112166;28;20460;-61
2022/05/18 00:32:06;;;;;;;12.00;7.07;;;;;;;21.88;52.69;101760.94;5113571;28;20062;-61
2022/05/18 00:34:33;;;;;;;10.00;7.15;;;;;;;21.85;53.04;101766.72;5133365;28;20043;-61
2022/05/18 00:36:59;;;;;;;10.20;7.65;;;;;;;21.84;53.16;101773.22;5133882;28;20385;-60
2022/05/18 00:39:26;;;;;;;10.05;6.75;;;;;;;21.83;52.81;101763.31;5116096;28;20049;-60
2022/05/18 00:41:52;;;;;;;8.52;7.13;;;;;;;21.81;52.97;101759.88;5133928;28;20485;-61
2022/05/18 00:44:21;;;;;;;7.68;6.18;;;;;;;21.79;52.93;101765.50;5134229;28;20047;-60
2022/05/18 00:46:47;;;;;;;9.88;7.38;;;;;;;21.77;53.03;101764.78;5134104;28;20047;-61
2022/05/18 00:49:14;;;;;;;10.80;6.30;;;;;;;21.76;52.78;101767.69;5134293;28;20411;-60
2022/05/18 00:51:48;;;;;;;10.85;7.30;;;;;;;21.75;53.21;101766.84;5134382;28;20050;-61
2022/05/18 00:54:24;;;;;;;7.70;6.50;;;;;;;21.73;52.85;101759.81;5133459;28;20058;-62
2022/05/18 00:56:59;;;;;;;10.35;6.88;;;;;;;21.71;52.87;101761.84;5138797;28;20078;-60
2022/05/18 00:59:49;;;;;;;11.95;6.70;;;;;;;21.66;52.83;101770.53;5136000;28;20049;-61
2022/05/18 01:02:18;;;;;;;13.45;7.05;;;;;;;21.63;53.05;101764.50;5133805;28;20397;-61
2022/05/18 01:04:55;;;;;;;8.98;6.93;;;;;;;21.60;53.25;101764.84;5128225;28;20064;-61
2022/05/18 01:07:31;;;;;;;9.13;6.40;;;;;;;21.59;53.08;101772.16;5127597;28;20047;-60
2022/05/18 01:09:59;;;;;;;8.27;6.63;;;;;;;21.59;53.42;101768.59;5130676;28;20059;-61
2022/05/18 01:12:25;;;;;;;8.15;6.38;;;;;;;21.58;53.03;101766.88;5133330;28;20043;-61
2022/05/18 01:14:56;;;;;;;10.43;6.65;;;;;;;21.57;53.39;101766.00;5114646;28;20499;-61
2022/05/18 01:17:25;;;;;;;10.02;7.38;;;;;;;21.55;53.54;101774.38;5125071;28;20039;-62
2022/05/18 01:19:55;;;;;;;7.43;6.15;;;;;;;21.55;53.41;101768.00;5109796;27;20039;-62
2022/05/18 01:22:50;;;;;;;7.32;6.47;;;;;;;21.52;53.24;101762.84;5136962;27;20042;-62
2022/05/18 01:25:35;;;;;;;11.07;6.82;;;;;;;21.51;53.39;101762.00;5129252;27;20051;-62
2022/05/18 01:28:03;;;;;;;10.77;7.03;;;;;;;21.49;53.11;101763.16;5137524;27;20050;-61
2022/05/18 01:30:31;;;;;;;9.48;6.90;;;;;;;21.47;53.13;101766.06;5134008;27;20036;-62
2022/05/18 01:33:03;;;;;;;7.75;6.68;;;;;;;21.44;53.60;101758.19;5134785;27;20140;-63
2022/05/18 01:35:32;;;;;;;8.45;6.57;;;;;;;21.43;53.63;101769.28;5137385;27;20047;-62
2022/05/18 01:37:59;;;;;;;11.05;6.82;;;;;;;21.42;53.19;101762.94;5130427;27;20123;-62
2022/05/18 01:40:42;;;;;;;10.30;7.30;;;;;;;21.38;53.47;101767.00;5137183;27;20118;-63
2022/05/18 01:43:13;;;;;;;9.90;6.90;;;;;;;21.37;53.27;101761.69;5136961;27;20051;-62
2022/05/18 01:45:40;;;;;;;9.45;7.53;;;;;;;21.35;53.43;101763.72;5136940;27;20046;-62
2022/05/18 01:48:13;;;;;;;8.82;6.32;;;;;;;21.32;53.57;101769.50;5133234;27;20387;-62
2022/05/18 01:50:41;;;;;;;10.32;6.40;;;;;;;21.28;53.86;101762.66;5136686;27;20047;-62
2022/05/18 01:53:08;;;;;;;9.35;6.55;;;;;;;21.27;53.36;101772.72;5136299;27;20050;-62
2022/05/18 01:55:36;;;;;;;8.15;6.50;;;;;;;21.25;53.69;101766.53;5135966;27;20039;-62
2022/05/18 01:58:03;;;;;;;8.57;6.53;;;;;;;21.24;53.47;101762.09;5133834;27;20035;-61
2022/05/18 02:00:31;;;;;;;8.98;6.38;;;;;;;21.23;53.83;101765.84;5135359;27;20032;-61
2022/05/18 02:02:58;;;;;;;13.23;6.45;;;;;;;21.23;53.68;101766.69;5131963;27;20040;-62
2022/05/18 02:05:24;;;;;;;8.23;6.85;;;;;;;21.22;53.18;101775.91;5136115;27;20508;-62
2022/05/18 02:07:52;;;;;;;8.95;6.63;;;;;;;21.20;53.71;101766.97;5130480;27;20035;-62
2022/05/18 02:10:19;;;;;;;13.10;7.50;;;;;;;21.17;53.32;101766.44;5135891;27;20393;-61
2022/05/18 02:12:45;;;;;;;9.68;6.88;;;;;;;21.14;53.53;101762.13;5134938;27;20054;-62
2022/05/18 02:15:12;;;;;;;8.45;6.47;;;;;;;21.12;53.44;101764.16;5136334;27;20039;-61
2022/05/18 02:17:39;;;;;;;9.95;7.03;;;;;;;21.10;53.29;101762.59;5136347;27;20039;-62
2022/05/18 02:20:07;;;;;;;7.00;6.15;;;;;;;21.07;53.81;101762.91;5132838;27;20551;-62
2022/05/18 02:22:33;;;;;;;11.38;6.55;;;;;;;21.05;53.56;101762.22;5135451;27;20489;-62
2022/05/18 02:25:00;;;;;;;9.48;6.32;;;;;;;21.03;53.62;101758.78;5135505;27;20046;-61
2022/05/18 02:27:28;;;;;;;10.73;6.68;;;;;;;21.00;53.85;101761.81;5131563;27;20039;-61
2022/05/18 02:29:55;;;;;;;8.48;6.07;;;;;;;20.97;54.04;101760.25;5135638;27;20039;-61
2022/05/18 02:32:22;;;;;;;8.52;6.60;;;;;;;20.96;53.92;101768.59;5135192;27;20481;-61
2022/05/18 02:34:49;;;;;;;9.63;6.07;;;;;;;20.94;53.81;101760.56;5132598;27;20040;-62
2022/05/18 02:37:15;;;;;;;10.43;6.90;;;;;;;20.92;53.63;101763.44;5135077;27;20515;-61
2022/05/18 02:39:42;;;;;;;12.30;6.22;;;;;;;20.88;54.15;101762.03;5130103;27;20039;-61
2022/05/18 02:42:08;;;;;;;9.60;6.40;;;;;;;20.87;53.68;101754.88;5117151;27;20043;-63
2022/05/18 02:44:35;;;;;;;7.38;6.05;;;;;;;20.87;54.28;101762.19;5127107;27;20036;-62
2022/05/18 02:47:03;;;;;;;9.32;6.28;;;;;;;20.86;53.74;101755.00;5112114;27;20476;-61
2022/05/18 02:49:30;;;;;;;9.55;6.35;;;;;;;20.84;54.21;101757.03;5129138;27;20039;-61
2022/05/18 02:51:57;;;;;;;8.80;5.95;;;;;;;20.82;54.16;101756.34;5133185;27;20042;-61
2022/05/18 02:57:10;;;;;;;7.45;6.45;;;;;;;20.73;54.07;101751.75;5126944;27;20096;-62
2022/05/18 02:59:37;;;;;;;8.48;6.25;;;;;;;20.69;54.49;101751.22;5135034;27;20039;-61
2022/05/18 03:02:04;;;;;;;8.07;6.32;;;;;;;20.67;54.27;101755.97;5135153;27;20039;-62
2022/05/18 03:04:31;;;;;;;8.73;6.72;;;;;;;20.66;54.11;101765.16;5129057;27;20126;-62
2022/05/18 03:06:59;;;;;;;6.47;5.75;;;;;;;20.63;54.16;101757.28;5135231;27;20107;-62
2022/05/18 03:09:26;;;;;;;8.45;5.93;;;;;;;20.63;54.19;101762.75;5131949;27;20027;-62
2022/05/18 03:11:52;;;;;;;10.48;5.95;;;;;;;20.62;54.15;101772.78;5134964;27;20028;-60
2022/05/18 03:14:19;;;;;;;8.50;6.28;;;;;;;20.61;54.39;101781.13;5134991;27;20045;-60
2022/05/18 03:16:46;;;;;;;7.38;5.72;;;;;;;20.62;54.66;101780.13;5116466;27;20084;-62
2022/05/18 03:19:14;;;;;;;12.77;6.55;;;;;;;20.61;54.59;101776.53;5134815;27;20497;-61
2022/05/18 03:24:26;;;;;;;;;;;;;;;20.59;54.29;101775.81;5134241;27;20047;-61
2022/05/18 03:26:53;;;;;;;10.27;6.85;;;;;;;20.62;54.13;101770.06;5134718;27;19926;-61
2022/05/18 03:29:20;;;;;;;7.30;6.05;;;;;;;20.60;54.57;101776.69;5127191;27;20035;-61
2022/05/18 03:31:47;;;;;;;11.23;6.53;;;;;;;20.56;54.53;101773.41;5133692;27;20485;-60
2022/05/18 03:34:15;;;;;;;9.80;6.40;;;;;;;20.53;54.66;101783.75;5134165;27;20035;-61
2022/05/18 03:36:41;;;;;;;8.98;6.38;;;;;;;20.48;54.59;101783.34;5134478;27;20493;-61
2022/05/18 03:39:09;;;;;;;7.32;5.95;;;;;;;20.47;54.34;101779.78;5128909;27;20127;-61
2022/05/18 03:41:36;;;;;;;10.27;6.72;;;;;;;20.46;54.76;101790.84;5134372;27;20035;-61
2022/05/18 03:44:03;;;;;;;8.80;7.07;;;;;;;20.46;54.78;101793.56;5133668;27;20051;-61
2022/05/18 03:46:30;;;;;;;8.98;6.90;;;;;;;20.46;54.79;101799.88;5132005;27;20039;-61
2022/05/18 03:48:58;;;;;;;8.57;6.43;;;;;;;20.51;54.78;101805.75;5134621;27;20043;-61
2022/05/18 03:51:25;;;;;;;8.20;6.35;;;;;;;20.54;54.63;101815.50;5134757;27;20035;-61
2022/05/18 03:53:52;;;;;;;9.55;6.65;;;;;;;20.55;55.04;101811.75;5115945;27;20046;-60
2022/05/18 03:56:19;;;;;;;10.35;6.68;;;;;;;20.56;54.78;101817.06;5134635;27;20040;-61
2022/05/18 03:58:45;;;;;;;7.95;6.03;;;;;;;20.58;54.71;101817.78;5134792;27;20035;-60
2022/05/18 04:01:12;;;;;;;8.98;6.97;;;;;;;20.59;54.83;101824.97;5134380;27;20043;-61
2022/05/18 04:03:42;;;;;;;9.02;6.60;;;;;;;20.58;54.57;101820.50;5133935;27;20039;-61
2022/05/18 04:06:09;;;;;;;10.43;7.05;;;;;;;20.56;54.72;101821.66;5135003;27;20484;-61
2022/05/18 04:08:36;;;;;;;19.77;7.43;;;;;;;20.50;54.75;101820.41;5134464;27;20043;-61
2022/05/18 04:11:04;;;;;;;9.80;6.65;;;;;;;20.45;55.04;101821.84;5134054;27;20054;-61
2022/05/18 04:13:32;;;;;;;8.88;6.68;;;;;;;20.45;54.65;101813.66;5133929;27;20039;-61
2022/05/18 04:15:58;;;;;;;12.30;8.10;;;;;;;20.47;54.75;101817.13;5134092;27;20046;-61
2022/05/18 04:18:26;;;;;;;7.63;6.82;;;;;;;20.48;54.75;101819.69;5134196;27;20031;-61
2022/05/18 04:20:54;;;;;;;10.23;7.00;;;;;;;20.49;54.80;101823.28;5134293;27;20065;-62
2022/05/18 04:23:23;;;;;;;9.85;7.45;;;;;;;20.50;54.75;101822.28;5133715;27;20485;-60
2022/05/18 04:25:50;;;;;;;11.25;7.38;;;;;;;20.50;55.08;101827.72;5134098;27;20036;-60
2022/05/18 04:28:17;;;;;;;9.85;7.47;;;;;;;20.53;55.13;101838.34;5134219;27;20039;-60
2022/05/18 04:30:46;;;;;;;10.63;7.60;;;;;;;20.52;55.06;101839.34;5133746;27;20031;-60
2022/05/18 04:33:17;;;;;;;10.18;7.60;;;;;;;20.50;55.27;101833.19;5133985;28;20050;-59
2022/05/18 04:35:44;;;;;;;9.75;8.02;;;;;;;20.47;55.35;101833.47;5133938;28;21684;-61
2022/05/18 04:38:11;;;;;;;10.55;7.25;;;;;;;20.45;55.35;101835.50;5134170;28;20084;-60
2022/05/18 04:40:44;;;;;;;12.85;7.95;;;;;;;20.45;55.46;101835.50;5116668;28;20035;-60
2022/05/18 04:43:11;;;;;;;9.90;8.30;;;;;;;20.44;55.36;101834.66;5133634;28;20058;-60
2022/05/18 04:45:44;;;;;;;9.93;8.02;;;;;;;20.46;55.33;101838.09;5133869;28;20409;-60
2022/05/18 04:48:15;;;;;;;10.25;7.90;;;;;;;20.50;55.47;101835.91;5134300;28;20058;-61
2022/05/18 04:50:44;;;;;;;8.48;7.68;;;;;;;20.53;55.71;101830.16;5133989;28;20036;-60
2022/05/18 04:53:11;;;;;;;8.93;7.32;;;;;;;20.57;55.39;101829.72;5133596;28;20039;-60
2022/05/18 04:55:38;;;;;;;9.63;7.32;;;;;;;20.60;55.19;101840.31;5137300;27;20046;-61
2022/05/18 04:58:04;;;;;;;10.68;7.53;;;;;;;20.63;55.32;101836.44;5137946;27;20031;-61
2022/05/18 05:00:32;;;;;;;10.82;7.70;;;;;;;20.65;55.71;101837.16;5138298;27;20500;-61
2022/05/18 05:02:59;;;;;;;11.15;8.00;;;;;;;20.67;55.29;101845.19;5138007;27;20043;-61
2022/05/18 05:05:27;;;;;;;10.52;7.65;;;;;;;20.70;55.60;101847.59;5137360;27;20134;-61
2022/05/18 05:07:54;;;;;;;10.70;7.35;;;;;;;20.73;55.38;101845.44;5138116;27;20046;-60
2022/05/18 05:10:21;;;;;;;9.20;7.57;;;;;;;20.75;55.99;101845.28;5137737;27;20035;-61
2022/05/18 05:12:48;;;;;;;12.77;8.40;;;;;;;20.80;55.53;101849.28;5137359;27;20043;-61
2022/05/18 05:15:15;;;;;;;12.52;8.73;;;;;;;20.84;55.94;101847.16;5137588;27;20039;-62
2022/05/18 05:17:41;;;;;;;11.13;7.82;;;;;;;20.90;55.82;101844.66;5137942;27;20039;-60
2022/05/18 05:20:09;;;;;;;10.93;7.75;;;;;;;20.99;55.91;101850.22;5137811;27;20051;-61
2022/05/18 05:22:35;;;;;;;10.65;8.27;;;;;;;21.09;55.70;101851.03;5137176;27;20130;-61
2022/05/18 05:25:02;;;;;;;8.82;7.93;;;;;;;21.20;55.50;101853.53;5137030;27;20050;-61
2022/05/18 05:27:29;;;;;;;9.68;8.40;;;;;;;21.31;55.76;101856.09;5136685;27;20043;-60
2022/05/18 05:29:55;;;;;;;10.20;8.18;;;;;;;21.42;55.59;101868.66;5137770;27;20035;-60
2022/05/18 05:32:21;;;;;;;8.48;7.63;;;;;;;21.52;55.45;101864.84;5119333;27;20521;-61
2022/05/18 05:34:48;;;;;;;10.48;7.78;;;;;;;21.64;55.33;101861.91;5137374;27;20050;-61
2022/05/18 05:37:14;;;;;;;9.00;7.30;;;;;;;21.74;55.29;101862.69;5137779;27;20035;-59
2022/05/18 05:39:41;;;;;;;11.80;7.75;;;;;;;21.84;55.33;101858.84;5137499;27;20043;-61
2022/05/18 05:42:08;;;;;;;9.73;7.70;;;;;;;21.93;55.16;101865.25;5137564;27;20047;-60
2022/05/18 05:44:36;;;;;;;8.93;7.53;;;;;;;22.03;55.22;101867.94;5101625;27;20039;-60
2022/05/18 05:47:03;;;;;;;8.73;7.28;;;;;;;22.12;54.94;101859.63;5137304;27;20138;-61
2022/05/18 05:49:30;;;;;;;13.65;7.28;;;;;;;22.23;54.60;101863.97;5119376;27;20035;-60
2022/05/18 05:51:56;;;;;;;9.27;7.35;;;;;;;22.35;54.87;101875.53;5137442;27;20039;-60
2022/05/18 05:54:23;;;;;;;9.77;7.32;;;;;;;22.47;54.29;101866.03;5137007;27;20043;-62
2022/05/18 05:56:50;;;;;;;10.80;7.55;;;;;;;22.60;54.53;101860.97;5118785;27;20039;-61
2022/05/18 05:59:19;;;;;;;11.40;8.00;;;;;;;22.75;54.39;101870.31;5137083;27;20493;-60
2022/05/18 06:01:46;;;;;;;9.23;7.75;;;;;;;22.89;54.06;101871.59;5114927;28;20057;-61
2022/05/18 06:04:14;;;;;;;7.50;6.80;;;;;;;23.06;54.09;101872.56;5116421;28;20048;-61
2022/05/18 06:06:41;;;;;;;11.13;7.57;;;;;;;23.26;53.84;101867.66;5115698;28;20042;-61
2022/05/18 06:09:07;;;;;;;9.55;6.90;;;;;;;23.46;53.70;101874.56;5116271;28;20036;-60
2022/05/18 06:11:36;;;;;;;9.73;6.97;;;;;;;23.63;53.44;101867.22;5116385;28;20130;-61
2022/05/18 06:14:03;;;;;;;12.30;7.80;;;;;;;23.85;53.24;101880.31;5116304;28;20043;-61
2022/05/18 06:16:30;;;;;;;8.05;6.80;;;;;;;24.03;52.79;101877.41;5116472;28;20048;-61
2022/05/18 06:18:59;;;;;;;9.60;7.13;;;;;;;24.19;52.73;101882.03;5114874;28;20050;-61
2022/05/18 06:21:26;;;;;;;10.05;7.97;;;;;;;24.31;52.03;101873.28;5116410;28;20044;-61
2022/05/18 06:23:53;;;;;;;7.70;6.93;;;;;;;24.42;52.09;101872.06;5115689;28;20044;-61
2022/05/18 06:26:19;;;;;;;7.53;6.55;;;;;;;24.48;51.84;101884.25;5116440;28;20401;-61
2022/05/18 06:28:49;;;;;;;10.88;7.22;;;;;;;24.53;51.42;101887.34;5116260;28;20389;-61
2022/05/18 06:31:16;;;;;;;10.35;6.85;;;;;;;24.57;51.48;101897.81;5116207;28;20057;-61
2022/05/18 06:33:43;;;;;;;8.10;6.70;;;;;;;24.59;51.08;101890.25;5114421;28;20100;-61
2022/05/18 06:36:10;;;;;;;9.25;6.72;;;;;;;24.62;51.08;101897.28;5117626;27;20039;-61
2022/05/18 06:38:37;;;;;;;8.90;7.05;;;;;;;24.63;51.11;101896.25;5136648;27;20058;-60
2022/05/18 06:41:22;;;;;;;7.90;6.35;;;;;;;24.64;50.90;101897.97;5136406;27;20039;-61
2022/05/18 06:43:50;;;;;;;7.72;6.80;;;;;;;24.69;50.95;101896.41;5136035;27;20400;-61
2022/05/18 06:46:18;;;;;;;8.77;6.93;;;;;;;24.81;51.02;101904.28;5136129;27;20067;-61
2022/05/18 06:48:45;;;;;;;11.43;7.63;;;;;;;24.91;51.00;101900.28;5135852;27;20055;-60
2022/05/18 06:51:17;;;;;;;9.38;7.00;;;;;;;25.03;50.88;101904.38;5135914;27;20076;-61
2022/05/18 06:53:44;;;;;;;9.77;7.10;;;;;;;25.20;50.85;101904.31;5135879;27;20047;-59
2022/05/18 06:56:10;;;;;;;11.88;7.75;;;;;;;25.32;50.63;101903.75;5117194;27;20477;-60
2022/05/18 06:58:37;;;;;;;13.05;8.48;;;;;;;25.46;50.78;101910.41;5136280;27;20047;-60
2022/05/18 07:01:06;;;;;;;8.13;6.93;;;;;;;25.59;50.48;101915.31;5135939;27;20047;-60
2022/05/18 07:03:33;;;;;;;14.82;7.30;;;;;;;25.74;50.32;101919.00;5135417;27;20103;-61
2022/05/18 07:05:59;;;;;;;10.20;8.80;;;;;;;25.85;50.15;101921.34;5135745;27;20035;-61
2022/05/18 07:08:26;;;;;;;9.55;7.97;;;;;;;25.91;50.30;101917.84;5135645;27;20417;-61
2022/05/18 07:10:52;;;;;;;9.80;8.35;;;;;;;25.96;49.68;101923.66;5134419;27;20489;-61
2022/05/18 07:13:19;;;;;;;11.38;8.02;;;;;;;26.04;49.76;101936.53;5135520;27;20039;-61
2022/05/18 07:15:46;;;;;;;12.75;7.90;;;;;;;26.13;49.69;101926.31;5135492;27;20042;-60
2022/05/18 07:18:14;;;;;;;8.05;7.25;;;;;;;26.18;49.81;101927.47;5134196;27;20400;-60
2022/05/18 07:20:41;;;;;;;11.38;7.72;;;;;;;26.26;49.59;101923.78;5135900;27;20043;-59
2022/05/18 07:23:08;;;;;;;11.75;7.65;;;;;;;26.34;49.43;101925.66;5135259;27;20493;-60
2022/05/18 07:25:35;;;;;;;15.50;8.18;;;;;;;26.40;49.37;101933.16;5135322;27;20054;-60
2022/05/18 07:28:02;;;;;;;9.27;6.85;;;;;;;26.45;49.06;101934.31;5135068;27;20047;-61
2022/05/18 07:30:48;;;;;;;18.17;6.97;;;;;;;26.49;48.93;101930.16;5135632;27;20054;-61
2022/05/18 07:33:16;;;;;;;9.70;6.18;;;;;;;26.55;48.74;101936.81;5134628;27;20043;-61
2022/05/18 07:35:43;;;;;;;8.55;6.07;;;;;;;26.57;48.34;101935.56;5135010;27;20050;-61
2022/05/18 07:38:10;;;;;;;7.82;5.43;;;;;;;26.59;48.21;101939.00;5135123;27;20043;-62
2022/05/18 07:40:56;;;;;;;7.80;5.18;;;;;;;26.64;47.80;101941.19;5135354;27;20057;-61
2022/05/18 07:43:23;;;;;;;10.43;5.28;;;;;;;26.68;47.39;101939.75;5134837;27;20031;-62
2022/05/18 07:45:52;;;;;;;8.27;5.03;;;;;;;26.72;47.25;101940.25;5116665;27;20581;-61
2022/05/18 07:48:20;;;;;;;5.72;4.72;;;;;;;26.74;47.16;101951.94;5134862;27;20047;-61
2022/05/18 07:50:47;;;;;;;7.70;4.97;;;;;;;26.77;46.92;101955.19;5134877;27;20046;-62
2022/05/18 07:53:14;;;;;;;6.85;5.47;;;;;;;26.80;46.60;101957.59;5134618;27;20039;-61
2022/05/18 07:55:41;;;;;;;8.15;5.50;;;;;;;26.83;46.29;101970.13;5134896;27;20138;-62
2022/05/18 07:58:11;;;;;;;8.32;6.05;;;;;;;26.89;46.18;101966.63;5116597;27;20039;-62
2022/05/18 08:00:38;;;;;;;10.20;6.93;;;;;;;26.95;45.75;101956.72;5134056;27;20066;-62
2022/05/18 08:03:05;;;;;;;11.85;6.20;;;;;;;27.05;45.64;101960.09;5134618;27;20035;-62
2022/05/18 08:05:33;;;;;;;8.57;6.55;;;;;;;27.17;45.47;101962.19;5134710;27;20043;-61
2022/05/18 08:08:12;;;;;;;11.60;7.03;;;;;;;27.34;44.80;101959.22;5134788;27;20074;-60
2022/05/18 08:16:19;;;;;;;11.45;7.38;;;;;;;27.78;44.32;101967.47;5134944;27;20065;-61
2022/05/18 08:18:48;;;;;;;9.95;6.97;;;;;;;27.89;43.95;101966.09;5112914;28;20530;-61
2022/05/18 08:21:15;;;;;;;11.93;8.05;;;;;;;28.02;43.79;101964.31;5115943;28;20400;-60
2022/05/18 08:23:42;;;;;;;10.38;7.50;;;;;;;28.12;43.32;101967.63;5121203;27;20065;-60
2022/05/18 08:26:08;;;;;;;15.65;7.90;;;;;;;28.20;43.15;101969.38;5134656;27;20127;-60
2022/05/18 08:28:35;;;;;;;10.40;7.53;;;;;;;28.25;42.92;101964.19;5134295;27;20043;-60
2022/05/18 08:31:01;;;;;;;11.85;8.45;;;;;;;28.30;42.48;101963.59;5134470;27;20045;-61
2022/05/18 08:33:31;;;;;;;14.18;8.70;;;;;;;28.33;42.31;101955.75;5133331;27;20047;-60
2022/05/18 08:36:03;;;;;;;13.65;8.75;;;;;;;28.35;42.30;101961.09;5116303;28;20050;-60
2022/05/18 08:38:30;;;;;;;15.63;9.40;;;;;;;28.41;42.16;101957.53;5134322;28;20043;-60
2022/05/18 08:41:22;;;;;;;12.15;8.50;;;;;;;28.45;42.03;101959.69;5134235;28;20039;-60
2022/05/18 08:43:52;;;;;;;13.90;9.10;;;;;;;28.57;41.96;101959.13;5120565;28;20409;-61
2022/05/18 08:46:25;;;;;;;13.05;8.82;;;;;;;28.69;42.01;101961.16;5134417;28;20036;-61
2022/05/18 08:49:13;;;;;;;12.45;9.13;;;;;;;28.84;42.05;101957.44;5133607;28;20074;-60
2022/05/18 08:52:20;;;;;;;12.57;8.50;;;;;;;28.99;41.77;101959.06;5134400;28;20485;-60
2022/05/18 08:55:30;;;;;;;15.95;9.60;;;;;;;29.15;41.81;101959.78;5134307;28;20059;-62
2022/05/18 08:57:59;;;;;;;15.43;10.35;;;;;;;29.28;41.64;101966.25;5134055;28;20042;-62
2022/05/18 09:00:36;;;;;;;15.40;10.57;;;;;;;29.37;41.70;101961.41;5134274;28;20043;-61
2022/05/18 09:03:44;;;;;;;13.75;9.77;;;;;;;29.47;41.40;101964.66;5133678;28;20047;-61
2022/05/18 09:06:26;;;;;;;16.60;9.68;;;;;;;29.64;41.34;101974.31;5099058;28;20501;-59
2022/05/18 09:10:12;;;;;;;14.18;9.73;;;;;;;29.74;40.97;101973.94;5113687;28;20048;-64
2022/05/18 09:11:59;;;;;;;14.40;10.10;;;;;;;29.77;40.81;101962.47;5113434;28;20054;-61
2022/05/18 09:14:30;;;;;;;18.67;11.63;;;;;;;29.80;40.46;101966.72;5113631;28;20043;-61
2022/05/18 09:17:17;;;;;;;13.57;10.23;;;;;;;29.86;40.62;101960.34;5114226;28;20046;-61
2022/05/18 09:20:05;;;;;;;13.13;9.60;;;;;;;29.95;40.26;101959.09;5138797;28;20046;-60
2022/05/18 09:22:59;;;;;;;11.52;9.68;;;;;;;30.05;40.24;101965.09;5135323;28;20473;-61
2022/05/18 09:26:09;;;;;;;17.30;9.75;;;;;;;30.15;40.41;101964.69;5134111;28;20100;-60
2022/05/18 09:28:53;;;;;;;12.80;9.02;;;;;;;30.32;40.48;101961.28;5133808;28;20043;-61
2022/05/18 09:31:32;;;;;;;9.77;7.10;;;;;;;30.43;40.29;101954.25;5133314;28;20532;-60
2022/05/18 09:34:11;;;;;;;8.93;6.47;;;;;;;30.55;40.07;101960.91;5133776;28;20289;-61
2022/05/18 09:36:54;;;;;;;8.95;5.15;;;;;;;30.70;39.68;101954.31;5133720;28;20073;-61
2022/05/18 09:39:25;;;;;;;9.30;4.50;;;;;;;30.84;39.85;101959.63;5133672;28;20078;-61
2022/05/18 09:42:06;;;;;;;6.88;3.80;;;;;;;31.02;39.45;101955.31;5135975;27;20388;-61
2022/05/18 09:44:42;;;;;;;8.05;5.50;;;;;;;31.23;39.26;101952.31;5137192;27;20043;-62
2022/05/18 09:47:12;;;;;;;7.60;5.13;;;;;;;31.35;38.87;101952.50;5116945;28;20084;-61
2022/05/18 09:49:44;;;;;;;10.45;5.30;;;;;;;31.50;39.38;101953.06;5116978;28;20039;-60
2022/05/18 09:52:12;;;;;;;9.88;4.78;;;;;;;31.66;39.21;101949.78;5117089;28;20405;-61
2022/05/18 09:54:39;;;;;;;11.20;5.32;;;;;;;31.79;38.59;101951.66;5116667;28;20047;-61
2022/05/18 09:57:18;;;;;;;7.75;4.78;;;;;;;31.83;38.03;101951.00;5116738;28;20047;-61
2022/05/18 09:59:52;;;;;;;9.00;5.10;;;;;;;31.93;37.99;101947.72;5127151;27;20043;-61
2022/05/18 10:07:57;;;;;;;9.13;4.60;;;;;;;32.08;37.08;101953.84;5136887;27;20046;-60
2022/05/18 10:10:28;;;;;;;12.57;4.97;;;;;;;32.10;37.15;101961.97;5136979;27;20047;-61
2022/05/18 10:12:58;;;;;;;7.20;4.03;;;;;;;32.13;36.66;101958.72;5136391;27;20039;-62
2022/05/18 10:15:24;;;;;;;7.85;4.55;;;;;;;32.16;36.13;101961.91;5136887;27;20039;-60
2022/05/18 10:17:56;;;;;;;6.80;4.53;;;;;;;32.17;36.22;101959.97;5136645;27;20058;-61
2022/05/18 10:20:25;;;;;;;9.45;4.10;;;;;;;32.21;36.12;101950.13;5137051;27;20511;-60
2022/05/18 10:22:53;;;;;;;6.63;4.50;;;;;;;32.30;36.28;101951.56;5136530;27;20043;-60
2022/05/18 10:25:30;;;;;;;7.45;4.18;;;;;;;32.41;36.29;101948.06;5135931;27;20035;-60
2022/05/18 10:27:57;;;;;;;7.07;4.20;;;;;;;32.56;36.63;101950.50;5136511;27;20051;-60
2022/05/18 10:30:32;;;;;;;7.80;4.38;;;;;;;32.58;36.06;101947.47;5136682;27;20100;-60
2022/05/18 10:33:18;;;;;;;6.43;4.75;;;;;;;32.59;36.20;101941.69;5118789;27;20499;-61
2022/05/18 10:35:49;;;;;;;7.20;4.22;;;;;;;32.65;36.34;101943.56;5136460;27;20039;-60
2022/05/18 10:38:25;;;;;;;13.30;4.60;;;;;;;32.73;36.56;101937.72;5136072;27;20374;-60
2022/05/18 10:41:05;;;;;;;5.20;4.70;;;;;;;32.84;35.99;101937.00;5136529;27;20051;-60
2022/05/18 10:43:35;;;;;;;8.65;4.95;;;;;;;32.81;35.85;101937.47;5136204;27;20043;-61
2022/05/18 10:46:26;;;;;;;6.25;4.78;;;;;;;32.82;35.95;101930.81;5136239;27;20050;-60
2022/05/18 10:48:59;;;;;;;4.30;3.72;;;;;;;32.87;35.28;101929.28;5135744;27;20059;-60
2022/05/18 10:51:43;;;;;;;6.45;4.00;;;;;;;32.80;35.05;101927.41;5108603;27;20048;-61
2022/05/18 10:54:22;;;;;;;7.97;4.40;;;;;;;32.82;35.35;101922.47;5135933;27;20047;-60
2022/05/18 10:56:50;;;;;;;8.48;5.30;;;;;;;32.85;34.92;101930.34;5133589;27;20042;-61
2022/05/18 10:59:21;;;;;;;12.65;6.07;;;;;;;32.82;34.96;101922.47;5135751;27;20489;-60
2022/05/18 11:01:57;;;;;;;9.63;6.18;;;;;;;32.75;35.08;101923.59;5136110;27;20043;-60
2022/05/18 11:04:44;;;;;;;9.40;5.78;;;;;;;32.70;34.67;101918.72;5135232;27;20055;-60
2022/05/18 11:07:10;;;;;;;9.32;6.57;;;;;;;32.71;34.87;101917.63;5114028;28;20453;-61
2022/05/18 11:09:41;;;;;;;7.55;6.15;;;;;;;32.73;34.80;101911.84;5115402;28;20092;-60
2022/05/18 11:12:23;;;;;;;9.90;6.43;;;;;;;32.67;34.17;101913.56;5114988;28;20036;-61
2022/05/18 11:15:05;;;;;;;8.30;5.50;;;;;;;32.61;34.67;101911.72;5115104;28;20055;-60
2022/05/18 11:17:41;;;;;;;9.95;6.13;;;;;;;32.65;34.52;101917.66;5115020;28;20383;-61
2022/05/18 11:20:40;;;;;;;10.68;5.22;;;;;;;32.70;34.83;101917.84;5114986;28;20442;-60
2022/05/18 11:23:46;;;;;;;8.27;5.53;;;;;;;32.85;34.65;101922.00;5115009;28;20044;-61
2022/05/18 11:26:41;;;;;;;7.78;5.18;;;;;;;32.94;34.37;101916.13;5116414;27;20047;-61
2022/05/18 11:29:08;;;;;;;;;;;;;;;33.02;34.87;101921.41;5135993;27;20049;-61
2022/05/18 11:31:56;;;;;;;10.68;5.80;;;;;;;33.15;34.49;101913.72;5135222;27;20385;-60
2022/05/18 11:34:29;;;;;;;8.70;5.35;;;;;;;33.21;33.94;101914.72;5134852;27;20035;-60
2022/05/18 11:37:20;;;;;;;6.20;5.55;;;;;;;33.21;33.78;101916.66;5135017;27;20047;-60
2022/05/18 11:40:10;;;;;;;7.82;5.82;;;;;;;33.24;34.05;101917.06;5134844;27;20039;-60
2022/05/18 11:42:45;;;;;;;10.43;6.05;;;;;;;33.30;33.84;101916.16;5133158;27;20035;-61
2022/05/18 11:45:38;;;;;;;11.63;6.45;;;;;;;33.33;33.62;101915.69;5134620;27;20373;-60
2022/05/18 11:48:39;;;;;;;7.22;4.32;;;;;;;33.39;33.70;101906.38;5134982;27;20397;-59
2022/05/18 11:51:35;;;;;;;8.05;4.53;;;;;;;33.52;33.99;101912.88;5134663;27;20043;-61
2022/05/18 11:54:29;;;;;;;7.70;4.60;;;;;;;33.67;33.86;101910.53;5134918;27;20039;-61
2022/05/18 11:57:02;;;;;;;10.45;4.97;;;;;;;33.82;33.62;101899.84;5134413;27;20058;-60